createdAt,value
2023-03-21T00:00:26.414Z,99756.77
2023-03-21T00:01:28.447Z,99752.31
2023-03-21T00:02:35.387Z,99759.42
2023-03-21T00:03:39.956Z,99754.11
2023-03-21T00:04:51.266Z,99751.46
2023-03-21T00:05:52.311Z,99752.31
2023-03-21T00:06:55.344Z,99758.34
2023-03-21T00:08:01.868Z,99752.19
2023-03-21T00:09:07.731Z,99752.09
2023-03-21T00:10:18.066Z,99749.31
2023-03-21T00:11:25.503Z,99750.16
2023-03-21T00:12:32.204Z,99751.86
2023-03-21T00:13:38.509Z,99753.53
2023-03-21T00:14:46.170Z,99753.53
2023-03-21T00:16:11.908Z,99747.38
2023-03-21T00:17:01.326Z,99749.08
2023-03-21T00:18:07.829Z,99749.08
2023-03-21T00:19:12.962Z,99742.92
2023-03-21T00:20:18.201Z,99746.56
2023-03-21T00:22:39.034Z,99741.39
2023-03-21T00:23:43.868Z,99743.61
2023-03-21T00:24:54.695Z,99743.51
2023-03-21T00:26:00.264Z,99737.25
2023-03-21T00:27:30.278Z,99732.67
2023-03-21T00:28:12.558Z,99740.63
2023-03-21T00:29:14.730Z,99737.13
2023-03-21T00:30:20.540Z,99732.77
2023-03-21T00:31:26.720Z,99739.91
2023-03-21T00:32:35.566Z,99731.95
2023-03-21T00:33:45.137Z,99743.38
2023-03-21T00:35:02.351Z,99735.33
2023-03-21T00:36:05.103Z,99737.25
2023-03-21T00:37:05.782Z,99739.91
2023-03-21T00:38:14.363Z,99741.58
2023-03-21T00:39:20.775Z,99736.41
2023-03-21T00:40:34.932Z,99741.70
2023-03-21T00:41:42.156Z,99743.51
2023-03-21T00:42:38.437Z,99733.00
2023-03-21T00:43:40.863Z,99735.65
2023-03-21T00:44:46.864Z,99730.47
2023-03-21T00:45:57.797Z,99729.75
2023-03-21T00:47:07.077Z,99729.84
2023-03-21T00:48:05.818Z,99737.80
2023-03-21T00:49:08.489Z,99728.05
2023-03-21T00:50:11.508Z,99730.92
2023-03-21T00:51:16.866Z,99732.63
2023-03-21T00:52:27.539Z,99727.33
2023-03-21T00:53:23.358Z,99737.08
2023-03-21T00:54:26.133Z,99723.20
2023-03-21T00:55:28.309Z,99728.63
2023-03-21T00:56:33.638Z,99725.25
2023-03-21T00:57:39.681Z,99721.63
2023-03-21T00:58:40.151Z,99721.75
2023-03-21T00:59:42.180Z,99722.60
2023-03-21T01:00:45.652Z,99715.47
2023-03-21T01:01:47.899Z,99721.63
2023-03-21T01:02:54.804Z,99719.95
2023-03-21T01:03:54.592Z,99710.30
2023-03-21T01:04:56.686Z,99717.39
2023-03-21T01:05:59.250Z,99721.75
2023-03-21T01:07:02.663Z,99712.09
2023-03-21T01:08:20.641Z,99711.37
2023-03-21T01:09:19.233Z,99715.82
2023-03-21T01:10:21.861Z,99712.45
2023-03-21T01:11:27.341Z,99711.50
2023-03-21T01:12:30.057Z,99715.09
2023-03-21T01:13:34.624Z,99714.38
2023-03-21T01:14:36.559Z,99709.07
2023-03-21T01:16:55.026Z,99707.42
2023-03-21T01:17:57.106Z,99710.59
2023-03-21T01:18:59.281Z,99706.87
2023-03-21T01:20:02.200Z,99711.19
2023-03-21T01:21:10.441Z,99708.31
2023-03-21T01:22:13.179Z,99702.06
2023-03-21T01:23:16.052Z,99706.42
2023-03-21T01:24:18.722Z,99706.42
2023-03-21T01:25:22.599Z,99703.64
2023-03-21T01:26:25.563Z,99708.94
2023-03-21T01:27:27.865Z,99701.94
2023-03-21T01:28:30.046Z,99708.94
2023-03-21T01:29:33.139Z,99704.49
2023-03-21T01:30:41.677Z,99701.71
2023-03-21T01:31:40.013Z,99704.49
2023-03-21T01:32:42.982Z,99705.34
2023-03-21T01:33:47.339Z,99700.05
2023-03-21T01:34:51.177Z,99701.71
2023-03-21T01:36:03.351Z,99709.67
2023-03-21T01:36:59.055Z,99699.28
2023-03-21T01:38:01.402Z,99694.74
2023-03-21T01:39:04.977Z,99699.41
2023-03-21T01:40:08.666Z,99693.98
2023-03-21T01:41:47.748Z,99702.92
2023-03-21T01:42:37.896Z,99693.27
2023-03-21T01:43:40.652Z,99698.47
2023-03-21T01:46:24.016Z,99685.12
2023-03-21T01:47:31.475Z,99693.62
2023-03-21T01:48:40.661Z,99695.28
2023-03-21T01:49:45.456Z,99687.34
2023-03-21T01:50:59.748Z,99689.27
2023-03-21T01:52:33.530Z,99688.41
2023-03-21T01:53:25.721Z,99681.44
2023-03-21T01:54:31.519Z,99678.79
2023-03-21T01:55:34.156Z,99684.19
2023-03-21T01:56:45.690Z,99685.89
2023-03-21T01:58:04.766Z,99690.34
2023-03-21T01:59:00.411Z,99688.63
2023-03-21T02:00:06.526Z,99685.16
2023-03-21T02:01:25.461Z,99680.81
2023-03-21T02:02:31.095Z,99677.22
2023-03-21T02:03:36.527Z,99680.69
2023-03-21T02:06:12.301Z,99671.96
2023-03-21T02:07:24.565Z,99676.72
2023-03-21T02:08:39.533Z,99673.81
2023-03-21T02:09:41.858Z,99674.66
2023-03-21T02:10:50.532Z,99672.86
2023-03-21T02:11:54.935Z,99675.52
2023-03-21T02:13:00.568Z,99673.81
2023-03-21T02:14:06.534Z,99673.94
2023-03-21T02:15:10.908Z,99673.09
2023-03-21T02:16:30.751Z,99665.98
2023-03-21T02:17:55.347Z,99670.56
2023-03-21T02:19:03.025Z,99664.28
2023-03-21T02:20:22.129Z,99655.52
2023-03-21T02:21:45.144Z,99658.98
2023-03-21T02:22:57.479Z,99659.96
2023-03-21T02:24:23.504Z,99654.77
2023-03-21T02:26:04.631Z,99659.34
2023-03-21T02:28:44.039Z,99656.02
2023-03-21T02:30:09.945Z,99662.78
2023-03-21T02:31:38.665Z,99651.23
2023-03-21T02:33:11.732Z,99656.28
2023-03-21T02:34:42.344Z,99652.81
2023-03-21T02:36:17.750Z,99663.41
2023-03-21T02:37:37.573Z,99659.78
2023-03-21T02:38:53.531Z,99661.58
2023-03-21T02:40:11.758Z,99659.19
2023-03-21T02:41:29.900Z,99660.13
2023-03-21T02:43:09.330Z,99659.41
2023-03-21T02:44:33.409Z,99653.27
2023-03-21T02:45:56.175Z,99651.46
2023-03-21T02:47:06.643Z,99650.70
2023-03-21T02:48:25.368Z,99648.81
2023-03-21T02:50:43.357Z,99648.96
2023-03-21T02:51:47.594Z,99653.70
2023-03-21T02:52:51.013Z,99649.26
2023-03-21T02:54:25.002Z,99650.11
2023-03-21T02:56:36.498Z,99651.91
2023-03-21T02:57:43.366Z,99652.63
2023-03-21T02:58:46.447Z,99649.98
2023-03-21T02:59:55.542Z,99648.19
2023-03-21T03:00:55.269Z,99642.03
2023-03-21T03:01:59.402Z,99654.33
2023-03-21T03:03:09.699Z,99651.55
2023-03-21T03:04:17.835Z,99648.05
2023-03-21T03:06:42.366Z,99642.59
2023-03-21T03:08:32.474Z,99643.11
2023-03-21T03:11:23.041Z,99650.53
2023-03-21T03:13:54.894Z,99645.59
2023-03-21T03:20:15.631Z,99653.08
2023-03-21T03:21:17.191Z,99647.91
2023-03-21T03:22:26.740Z,99655.94
2023-03-21T03:23:41.777Z,99651.72
2023-03-21T03:24:50.987Z,99652.92
2023-03-21T03:25:59.693Z,99641.69
2023-03-21T03:27:06.159Z,99655.16
2023-03-21T03:28:11.091Z,99653.36
2023-03-21T03:29:16.510Z,99653.48
2023-03-21T03:30:19.600Z,99652.63
2023-03-21T03:31:25.333Z,99660.67
2023-03-21T03:32:33.028Z,99661.73
2023-03-21T03:33:38.331Z,99656.78
2023-03-21T03:34:47.094Z,99658.70
2023-03-21T03:36:02.587Z,99657.00
2023-03-21T03:36:57.771Z,99661.45
2023-03-21T03:38:02.596Z,99661.45
2023-03-21T03:39:08.230Z,99664.31
2023-03-21T03:41:29.394Z,99652.34
2023-03-21T03:42:54.674Z,99662.44
2023-03-21T03:43:59.826Z,99659.58
2023-03-21T03:45:06.266Z,99662.00
2023-03-21T03:47:34.931Z,99663.88
2023-03-21T03:48:39.869Z,99660.86
2023-03-21T03:51:04.628Z,99655.30
2023-03-21T03:54:47.048Z,99652.78
2023-03-21T03:55:51.677Z,99655.56
2023-03-21T03:56:54.460Z,99662.12
2023-03-21T03:57:56.744Z,99651.41
2023-03-21T03:59:02.080Z,99658.07
2023-03-21T04:00:10.677Z,99654.35
2023-03-21T04:01:24.231Z,99658.58
2023-03-21T04:02:26.973Z,99663.66
2023-03-21T04:03:39.195Z,99664.38
2023-03-21T04:04:34.511Z,99653.58
2023-03-21T04:05:40.568Z,99655.38
2023-03-21T04:06:44.372Z,99651.78
2023-03-21T04:07:48.526Z,99657.80
2023-03-21T04:08:51.326Z,99651.66
2023-03-21T04:09:55.834Z,99659.38
2023-03-21T04:10:59.117Z,99654.94
2023-03-21T04:12:02.103Z,99663.73
2023-03-21T04:13:05.623Z,99659.28
2023-03-21T04:14:23.278Z,99657.58
2023-03-21T04:15:26.107Z,99658.53
2023-03-21T04:16:30.485Z,99659.50
2023-03-21T04:17:33.458Z,99654.42
2023-03-21T04:18:37.631Z,99662.50
2023-03-21T04:19:40.850Z,99655.59
2023-03-21T04:20:43.033Z,99654.99
2023-03-21T04:21:45.880Z,99657.00
2023-03-21T04:22:48.234Z,99651.83
2023-03-21T04:23:51.410Z,99653.94
2023-03-21T04:24:55.160Z,99660.30
2023-03-21T04:25:57.572Z,99650.91
2023-03-21T04:27:10.652Z,99652.83
2023-03-21T04:28:14.834Z,99652.19
2023-03-21T04:29:22.659Z,99658.55
2023-03-21T04:30:27.269Z,99655.14
2023-03-21T04:31:32.509Z,99651.67
2023-03-21T04:32:40.033Z,99649.97
2023-03-21T04:33:44.280Z,99649.97
2023-03-21T04:34:46.837Z,99656.20
2023-03-21T04:35:48.949Z,99649.13
2023-03-21T04:36:52.018Z,99647.33
2023-03-21T04:37:54.939Z,99654.20
2023-03-21T04:38:58.078Z,99646.98
2023-03-21T04:40:02.404Z,99648.56
2023-03-21T04:41:05.591Z,99653.64
2023-03-21T04:42:07.881Z,99651.00
2023-03-21T04:43:10.401Z,99645.61
2023-03-21T04:44:15.670Z,99650.69
2023-03-21T04:45:18.355Z,99648.64
2023-03-21T04:46:22.921Z,99651.20
2023-03-21T04:47:25.974Z,99648.21
2023-03-21T04:48:29.671Z,99651.27
2023-03-21T04:49:32.048Z,99653.48
2023-03-21T04:50:34.192Z,99650.27
2023-03-21T04:51:37.454Z,99649.83
2023-03-21T04:52:40.221Z,99651.05
2023-03-21T04:53:42.577Z,99648.81
2023-03-21T04:54:45.059Z,99657.13
2023-03-21T04:55:47.241Z,99650.53
2023-03-21T04:56:50.659Z,99660.69
2023-03-21T04:58:00.682Z,99647.94
2023-03-21T04:59:15.360Z,99652.55
2023-03-21T05:00:18.250Z,99650.04
2023-03-21T05:01:22.669Z,99651.39
2023-03-21T05:02:25.023Z,99652.86
2023-03-21T05:03:27.486Z,99653.34
2023-03-21T05:04:30.173Z,99647.91
2023-03-21T05:05:32.725Z,99648.53
2023-03-21T05:06:35.868Z,99647.45
2023-03-21T05:07:39.734Z,99649.77
2023-03-21T05:08:41.973Z,99646.04
2023-03-21T05:09:46.358Z,99640.47
2023-03-21T05:10:49.495Z,99649.90
2023-03-21T05:11:52.314Z,99646.06
2023-03-21T05:12:54.581Z,99645.70
2023-03-21T05:13:57.972Z,99643.66
2023-03-21T05:15:00.300Z,99643.39
2023-03-21T05:16:02.568Z,99646.56
2023-03-21T05:17:04.812Z,99649.97
2023-03-21T05:19:24.864Z,99652.49
2023-03-21T05:20:27.251Z,99651.35
2023-03-21T05:21:31.748Z,99647.52
2023-03-21T05:22:34.807Z,99644.86
2023-03-21T05:23:37.549Z,99652.81
2023-03-21T05:24:40.640Z,99651.25
2023-03-21T05:25:44.687Z,99651.35
2023-03-21T05:26:52.113Z,99653.52
2023-03-21T05:27:56.374Z,99657.26
2023-03-21T05:29:00.268Z,99656.54
2023-03-21T05:30:05.380Z,99655.69
2023-03-21T05:31:09.035Z,99657.72
2023-03-21T05:32:11.819Z,99664.73
2023-03-21T05:33:14.511Z,99662.31
2023-03-21T05:34:16.677Z,99665.09
2023-03-21T05:35:18.931Z,99659.89
2023-03-21T05:36:21.919Z,99665.09
2023-03-21T05:37:24.800Z,99669.55
2023-03-21T05:38:26.976Z,99663.30
2023-03-21T05:39:29.232Z,99663.52
2023-03-21T05:40:37.117Z,99668.08
2023-03-21T05:41:39.857Z,99664.70
2023-03-21T05:42:42.547Z,99676.40
2023-03-21T05:43:47.096Z,99674.83
2023-03-21T05:44:51.543Z,99671.45
2023-03-21T05:45:56.060Z,99679.64
2023-03-21T05:46:59.471Z,99677.08
2023-03-21T05:48:03.567Z,99678.92
2023-03-21T05:49:07.640Z,99672.86
2023-03-21T05:50:12.941Z,99672.86
2023-03-21T05:51:17.445Z,99676.36
2023-03-21T05:52:19.656Z,99673.94
2023-03-21T05:53:23.274Z,99684.67
2023-03-21T05:54:25.801Z,99672.37
2023-03-21T05:55:27.973Z,99674.17
2023-03-21T05:56:31.501Z,99676.00
2023-03-21T05:57:38.532Z,99669.00
2023-03-21T05:58:42.612Z,99676.00
2023-03-21T05:59:46.159Z,99671.64
2023-03-21T06:00:49.616Z,99667.20
2023-03-21T06:01:53.788Z,99674.30
2023-03-21T06:02:56.458Z,99665.49
2023-03-21T06:04:09.171Z,99673.45
2023-03-21T06:05:12.842Z,99669.00
2023-03-21T06:06:18.173Z,99672.59
2023-03-21T06:07:32.629Z,99669.84
2023-03-21T06:08:35.207Z,99672.37
2023-03-21T06:09:37.369Z,99668.77
2023-03-21T06:10:40.237Z,99667.91
2023-03-21T06:11:46.045Z,99665.27
2023-03-21T06:12:48.845Z,99667.91
2023-03-21T06:13:55.748Z,99658.27
2023-03-21T06:14:58.935Z,99654.66
2023-03-21T06:16:07.743Z,99671.29
2023-03-21T06:17:10.935Z,99668.54
2023-03-21T06:18:14.962Z,99666.70
2023-03-21T06:19:20.293Z,99664.05
2023-03-21T06:20:24.549Z,99660.45
2023-03-21T06:21:28.310Z,99662.03
2023-03-21T06:22:31.412Z,99662.52
2023-03-21T06:23:33.548Z,99658.78
2023-03-21T06:24:35.681Z,99665.69
2023-03-21T06:25:40.146Z,99662.05
2023-03-21T06:26:43.015Z,99669.91
2023-03-21T06:27:46.345Z,99668.92
2023-03-21T06:28:50.432Z,99659.17
2023-03-21T06:29:53.312Z,99665.33
2023-03-21T06:30:57.605Z,99659.89
2023-03-21T06:32:01.744Z,99662.44
2023-03-21T06:33:04.330Z,99667.75
2023-03-21T06:34:06.575Z,99670.40
2023-03-21T06:35:09.683Z,99669.41
2023-03-21T06:36:13.399Z,99665.81
2023-03-21T06:37:15.768Z,99661.36
2023-03-21T06:38:18.060Z,99662.08
2023-03-21T06:39:21.421Z,99669.80
2023-03-21T06:40:24.532Z,99665.22
2023-03-21T06:41:28.397Z,99661.61
2023-03-21T06:42:35.684Z,99665.94
2023-03-21T06:43:39.711Z,99663.05
2023-03-21T06:44:42.314Z,99662.09
2023-03-21T06:45:46.349Z,99664.62
2023-03-21T06:48:09.152Z,99654.30
2023-03-21T06:49:20.266Z,99658.98
2023-03-21T06:50:22.594Z,99655.89
2023-03-21T06:51:25.145Z,99655.62
2023-03-21T06:52:34.744Z,99662.39
2023-03-21T06:53:37.026Z,99648.88
2023-03-21T06:54:41.078Z,99652.97
2023-03-21T06:55:50.942Z,99655.39
2023-03-21T06:56:53.545Z,99651.64
2023-03-21T06:57:57.877Z,99653.11
2023-03-21T06:59:02.086Z,99652.97
2023-03-21T07:01:37.911Z,99640.77
2023-03-21T07:02:41.912Z,99639.11
2023-03-21T07:03:45.901Z,99641.50
2023-03-21T07:04:49.465Z,99645.61
2023-03-21T07:05:55.588Z,99636.55
2023-03-21T07:06:58.252Z,99645.13
2023-03-21T07:09:17.370Z,99640.88
2023-03-21T07:10:23.849Z,99649.11
2023-03-21T07:11:40.856Z,99647.16
2023-03-21T07:12:46.014Z,99645.83
2023-03-21T07:13:53.019Z,99641.23
2023-03-21T07:14:55.231Z,99652.45
2023-03-21T07:15:59.735Z,99644.24
2023-03-21T07:17:02.392Z,99645.91
2023-03-21T07:18:05.470Z,99641.34
2023-03-21T07:19:08.287Z,99649.17
2023-03-21T07:20:12.096Z,99640.25
2023-03-21T07:21:17.779Z,99643.51
2023-03-21T07:22:22.454Z,99646.03
2023-03-21T07:23:26.522Z,99642.98
2023-03-21T07:24:29.681Z,99641.07
2023-03-21T07:25:32.504Z,99642.48
2023-03-21T07:26:37.667Z,99646.60
2023-03-21T07:27:42.147Z,99646.35
2023-03-21T07:28:47.576Z,99653.09
2023-03-21T07:29:49.980Z,99646.67
2023-03-21T07:30:56.882Z,99645.33
2023-03-21T07:32:01.072Z,99645.92
2023-03-21T07:34:16.515Z,99641.98
2023-03-21T07:35:20.254Z,99638.55
2023-03-21T07:36:23.331Z,99643.47
2023-03-21T07:37:26.469Z,99639.72
2023-03-21T07:38:28.568Z,99649.11
2023-03-21T07:39:31.271Z,99637.26
2023-03-21T07:40:37.239Z,99643.99
2023-03-21T07:41:39.737Z,99635.91
2023-03-21T07:42:51.526Z,99644.59
2023-03-21T07:43:58.938Z,99642.52
2023-03-21T07:45:10.709Z,99638.76
2023-03-21T07:46:14.675Z,99633.05
2023-03-21T07:47:19.432Z,99638.95
2023-03-21T07:48:26.303Z,99639.58
2023-03-21T07:49:29.468Z,99636.52
2023-03-21T07:50:38.013Z,99640.73
2023-03-21T07:51:42.147Z,99643.00
2023-03-21T07:52:44.710Z,99638.97
2023-03-21T07:53:47.279Z,99643.66
2023-03-21T07:54:49.437Z,99641.89
2023-03-21T07:55:53.247Z,99637.34
2023-03-21T07:56:57.037Z,99636.25
2023-03-21T07:57:59.600Z,99640.38
2023-03-21T07:59:01.769Z,99646.04
2023-03-21T08:00:05.433Z,99643.85
2023-03-21T08:01:09.451Z,99636.33
2023-03-21T08:02:16.864Z,99644.63
2023-03-21T08:03:21.216Z,99645.08
2023-03-21T08:04:23.884Z,99642.73
2023-03-21T08:05:35.142Z,99638.64
2023-03-21T08:06:37.778Z,99633.85
2023-03-21T08:07:39.730Z,99640.98
2023-03-21T08:08:41.953Z,99637.03
2023-03-21T08:09:49.892Z,99638.40
2023-03-21T08:10:52.963Z,99630.93
2023-03-21T08:12:06.081Z,99634.83
2023-03-21T08:13:10.052Z,99631.97
2023-03-21T08:14:22.327Z,99629.66
2023-03-21T08:15:29.537Z,99626.63
2023-03-21T08:17:53.782Z,99618.73
2023-03-21T08:18:56.074Z,99630.96
2023-03-21T08:19:58.164Z,99631.42
2023-03-21T08:21:00.537Z,99637.42
2023-03-21T08:22:04.522Z,99623.97
2023-03-21T08:23:07.155Z,99621.87
2023-03-21T08:24:09.939Z,99618.94
2023-03-21T08:25:15.088Z,99622.22
2023-03-21T08:26:17.830Z,99622.80
2023-03-21T08:28:35.009Z,99623.52
2023-03-21T08:29:38.365Z,99618.16
2023-03-21T08:30:41.101Z,99609.16
2023-03-21T08:31:47.839Z,99621.47
2023-03-21T08:32:50.333Z,99616.81
2023-03-21T08:33:54.321Z,99607.80
2023-03-21T08:35:01.160Z,99606.14
2023-03-21T08:36:05.964Z,99607.15
2023-03-21T08:37:08.048Z,99609.84
2023-03-21T08:38:11.227Z,99612.73
2023-03-21T08:39:14.169Z,99604.03
2023-03-21T08:40:17.698Z,99607.57
2023-03-21T08:41:20.407Z,99608.42
2023-03-21T08:42:22.749Z,99603.06
2023-03-21T08:43:25.542Z,99595.01
2023-03-21T08:44:27.718Z,99596.70
2023-03-21T08:45:30.246Z,99599.38
2023-03-21T08:46:33.639Z,99596.69
2023-03-21T08:47:36.069Z,99598.38
2023-03-21T08:48:40.683Z,99599.55
2023-03-21T08:49:45.085Z,99598.88
2023-03-21T08:50:51.600Z,99599.86
2023-03-21T08:51:56.177Z,99601.87
2023-03-21T08:52:58.275Z,99594.81
2023-03-21T08:54:02.132Z,99597.48
2023-03-21T08:55:08.581Z,99602.14
2023-03-21T08:56:12.669Z,99597.77
2023-03-21T08:57:20.106Z,99597.24
2023-03-21T08:58:22.352Z,99596.71
2023-03-21T08:59:25.740Z,99590.68
2023-03-21T09:00:30.477Z,99600.94
2023-03-21T09:01:32.936Z,99602.25
2023-03-21T09:02:38.086Z,99592.83
2023-03-21T09:03:41.398Z,99590.45
2023-03-21T09:04:45.017Z,99593.45
2023-03-21T09:05:48.994Z,99593.75
2023-03-21T09:06:52.438Z,99592.41
2023-03-21T09:07:54.536Z,99591.02
2023-03-21T09:08:57.010Z,99594.02
2023-03-21T09:10:19.090Z,99589.97
2023-03-21T09:11:10.174Z,99586.93
2023-03-21T09:12:13.656Z,99587.39
2023-03-21T09:13:15.990Z,99591.42
2023-03-21T09:14:19.231Z,99587.34
2023-03-21T09:15:27.215Z,99583.94
2023-03-21T09:16:29.986Z,99593.35
2023-03-21T09:17:32.345Z,99584.73
2023-03-21T09:18:34.334Z,99584.18
2023-03-21T09:19:36.697Z,99584.02
2023-03-21T09:20:39.270Z,99588.86
2023-03-21T09:21:42.328Z,99585.80
2023-03-21T09:22:49.318Z,99585.48
2023-03-21T09:23:51.716Z,99590.52
2023-03-21T09:24:53.790Z,99591.16
2023-03-21T09:25:57.555Z,99582.08
2023-03-21T09:27:01.170Z,99582.08
2023-03-21T09:28:04.977Z,99583.56
2023-03-21T09:29:08.920Z,99586.27
2023-03-21T09:31:34.409Z,99583.63
2023-03-21T09:32:45.189Z,99579.48
2023-03-21T09:33:54.179Z,99584.70
2023-03-21T09:34:56.969Z,99589.89
2023-03-21T09:35:59.559Z,99587.04
2023-03-21T09:37:04.821Z,99583.30
2023-03-21T09:38:06.962Z,99582.95
2023-03-21T09:39:11.342Z,99587.97
2023-03-21T09:40:34.206Z,99589.47
2023-03-21T09:42:10.043Z,99579.34
2023-03-21T09:43:46.054Z,99579.81
2023-03-21T09:45:26.799Z,99581.50
2023-03-21T09:47:54.799Z,99574.95
2023-03-21T09:50:35.768Z,99571.58
2023-03-21T09:51:48.646Z,99578.61
2023-03-21T09:54:22.150Z,99575.76
2023-03-21T09:55:30.149Z,99570.36
2023-03-21T09:56:35.292Z,99576.40
2023-03-21T09:57:41.359Z,99583.48
2023-03-21T09:58:55.191Z,99575.39
2023-03-21T10:00:03.609Z,99574.71
2023-03-21T10:01:19.366Z,99571.20
2023-03-21T10:02:39.305Z,99570.36
2023-03-21T10:03:41.514Z,99576.59
2023-03-21T10:04:48.068Z,99578.25
2023-03-21T10:05:57.760Z,99573.70
2023-03-21T10:07:12.975Z,99570.36
2023-03-21T10:08:26.430Z,99572.22
2023-03-21T10:09:33.500Z,99565.14
2023-03-21T10:12:00.857Z,99560.34
2023-03-21T10:13:22.847Z,99561.52
2023-03-21T10:14:58.995Z,99568.55
2023-03-21T10:16:16.987Z,99565.70
2023-03-21T10:17:36.187Z,99562.64
2023-03-21T10:18:44.750Z,99570.89
2023-03-21T10:19:49.889Z,99570.89
2023-03-21T10:20:53.537Z,99569.88
2023-03-21T10:22:01.839Z,99567.37
2023-03-21T10:23:08.394Z,99567.19
2023-03-21T10:25:35.715Z,99568.23
2023-03-21T10:26:39.349Z,99559.10
2023-03-21T10:27:41.587Z,99563.28
2023-03-21T10:28:52.707Z,99571.85
2023-03-21T10:29:49.961Z,99563.77
2023-03-21T10:30:58.877Z,99564.61
2023-03-21T10:32:01.065Z,99563.77
2023-03-21T10:33:06.426Z,99555.48
2023-03-21T10:34:48.076Z,99559.87
2023-03-21T10:35:53.822Z,99560.70
2023-03-21T10:36:58.161Z,99560.15
2023-03-21T10:38:10.164Z,99558.45
2023-03-21T10:40:40.049Z,99548.27
2023-03-21T10:41:48.428Z,99553.63
2023-03-21T10:42:50.541Z,99555.31
2023-03-21T10:44:11.368Z,99548.72
2023-03-21T10:45:18.426Z,99556.61
2023-03-21T10:46:21.038Z,99556.24
2023-03-21T10:47:29.865Z,99550.85
2023-03-21T10:48:35.484Z,99554.39
2023-03-21T10:50:05.804Z,99549.64
2023-03-21T10:50:45.907Z,99545.09
2023-03-21T10:51:53.109Z,99539.06
2023-03-21T10:52:57.289Z,99545.30
2023-03-21T10:54:05.496Z,99546.11
2023-03-21T10:55:23.930Z,99539.91
2023-03-21T10:56:37.693Z,99537.20
2023-03-21T10:57:41.265Z,99541.56
2023-03-21T10:59:58.454Z,99536.55
2023-03-21T11:01:04.131Z,99541.92
2023-03-21T11:02:10.838Z,99541.08
2023-03-21T11:03:31.104Z,99537.57
2023-03-21T11:04:34.585Z,99536.73
2023-03-21T11:07:00.324Z,99530.88
2023-03-21T11:08:14.755Z,99539.51
2023-03-21T11:09:19.984Z,99529.57
2023-03-21T11:10:32.153Z,99543.69
2023-03-21T11:11:40.342Z,99537.45
2023-03-21T11:12:46.178Z,99542.00
2023-03-21T11:15:39.525Z,99528.00
2023-03-21T11:16:43.784Z,99538.09
2023-03-21T11:17:46.665Z,99532.34
2023-03-21T11:18:53.388Z,99525.44
2023-03-21T11:20:01.184Z,99530.47
2023-03-21T11:21:07.291Z,99527.41
2023-03-21T11:22:10.891Z,99525.39
2023-03-21T11:23:13.162Z,99526.20
2023-03-21T11:24:19.457Z,99523.50
2023-03-21T11:25:28.820Z,99516.45
2023-03-21T11:26:34.624Z,99531.78
2023-03-21T11:27:37.070Z,99527.41
2023-03-21T11:28:40.855Z,99529.45
2023-03-21T11:31:02.035Z,99518.59
2023-03-21T11:32:13.432Z,99519.96
2023-03-21T11:33:18.273Z,99524.51
2023-03-21T11:34:30.079Z,99527.84
2023-03-21T11:35:38.451Z,99524.34
2023-03-21T11:36:41.092Z,99522.66
2023-03-21T11:37:45.251Z,99526.36
2023-03-21T11:40:28.743Z,99521.73
2023-03-21T11:41:33.509Z,99526.63
2023-03-21T11:43:59.425Z,99520.44
2023-03-21T11:45:08.190Z,99525.14
2023-03-21T11:46:14.567Z,99523.45
2023-03-21T11:47:17.061Z,99526.34
2023-03-21T11:48:19.898Z,99522.97
2023-03-21T11:49:23.813Z,99526.70
2023-03-21T11:50:44.970Z,99523.33
2023-03-21T11:52:07.611Z,99522.69
2023-03-21T11:53:22.712Z,99519.12
2023-03-21T11:54:29.000Z,99522.84
2023-03-21T11:56:11.382Z,99516.78
2023-03-21T11:57:32.437Z,99516.78
2023-03-21T11:59:05.103Z,99521.16
2023-03-21T12:00:20.450Z,99519.67
2023-03-21T12:01:55.443Z,99519.02
2023-03-21T12:03:22.592Z,99516.49
2023-03-21T12:04:34.885Z,99512.15
2023-03-21T12:05:47.274Z,99516.85
2023-03-21T12:08:28.746Z,99512.75
2023-03-21T12:09:41.800Z,99510.17
2023-03-21T12:12:40.351Z,99509.38
2023-03-21T12:13:46.289Z,99509.88
2023-03-21T12:15:03.712Z,99505.34
2023-03-21T12:16:24.990Z,99509.03
2023-03-21T12:17:49.434Z,99508.03
2023-03-21T12:19:22.310Z,99508.03
2023-03-21T12:20:28.442Z,99501.80
2023-03-21T12:22:53.777Z,99499.52
2023-03-21T12:27:04.938Z,99499.56
2023-03-21T12:29:41.854Z,99489.83
2023-03-21T12:31:05.264Z,99487.44
2023-03-21T12:34:13.867Z,99493.36
2023-03-21T12:35:54.589Z,99493.66
2023-03-21T12:39:36.163Z,99497.91
2023-03-21T12:41:11.117Z,99487.33
2023-03-21T12:42:17.940Z,99487.33
2023-03-21T12:43:38.934Z,99488.99
2023-03-21T12:44:47.392Z,99488.18
2023-03-21T12:45:53.074Z,99490.87
2023-03-21T12:47:13.289Z,99489.19
2023-03-21T12:48:19.245Z,99487.50
2023-03-21T12:50:38.896Z,99491.81
2023-03-21T12:51:43.786Z,99493.98
2023-03-21T12:52:50.740Z,99492.29
2023-03-21T12:54:09.722Z,99493.13
2023-03-21T12:55:32.566Z,99495.98
2023-03-21T12:56:42.440Z,99493.13
2023-03-21T12:57:57.257Z,99487.91
2023-03-21T12:58:58.705Z,99493.48
2023-03-21T13:00:15.838Z,99483.92
2023-03-21T13:01:20.332Z,99483.27
2023-03-21T13:02:32.356Z,99488.81
2023-03-21T13:03:41.474Z,99481.09
2023-03-21T13:04:47.283Z,99485.63
2023-03-21T13:06:01.573Z,99495.94
2023-03-21T13:07:07.141Z,99485.33
2023-03-21T13:08:23.029Z,99483.84
2023-03-21T13:09:37.736Z,99480.50
2023-03-21T13:10:40.798Z,99483.34
2023-03-21T13:11:44.645Z,99490.77
2023-03-21T13:13:09.108Z,99488.27
2023-03-21T13:14:25.030Z,99487.58
2023-03-21T13:15:50.992Z,99485.73
2023-03-21T13:17:01.389Z,99489.62
2023-03-21T13:18:22.376Z,99485.08
2023-03-21T13:19:37.651Z,99484.59
2023-03-21T13:22:14.988Z,99478.16
2023-03-21T13:24:41.438Z,99480.89
2023-03-21T13:25:49.019Z,99479.27
2023-03-21T13:27:07.318Z,99487.17
2023-03-21T13:28:28.800Z,99481.80
2023-03-21T13:29:37.380Z,99486.14
2023-03-21T13:30:39.866Z,99480.77
2023-03-21T13:31:52.521Z,99487.17
2023-03-21T13:34:24.972Z,99479.72
2023-03-21T13:36:49.294Z,99473.19
2023-03-21T13:37:57.974Z,99484.88
2023-03-21T13:39:02.623Z,99477.47
2023-03-21T13:40:08.576Z,99482.66
2023-03-21T13:41:20.594Z,99474.59
2023-03-21T13:42:27.422Z,99483.50
2023-03-21T13:43:41.045Z,99477.27
2023-03-21T13:45:56.166Z,99471.70
2023-03-21T13:47:04.603Z,99476.31
2023-03-21T13:48:29.978Z,99474.28
2023-03-21T13:49:35.637Z,99467.25
2023-03-21T13:52:12.959Z,99468.52
2023-03-21T13:54:46.200Z,99468.09
2023-03-21T13:57:05.878Z,99462.17
2023-03-21T13:58:40.002Z,99471.16
2023-03-21T14:01:23.225Z,99467.71
2023-03-21T14:02:34.146Z,99470.66
2023-03-21T14:03:36.928Z,99470.13
2023-03-21T14:04:43.336Z,99480.88
2023-03-21T14:05:49.819Z,99472.16
2023-03-21T14:07:04.428Z,99473.16
2023-03-21T14:08:15.797Z,99473.16
2023-03-21T14:09:46.505Z,99475.85
2023-03-21T14:10:54.946Z,99474.20
2023-03-21T14:12:03.831Z,99469.48
2023-03-21T14:13:06.820Z,99474.85
2023-03-21T14:14:09.869Z,99475.85
2023-03-21T14:15:20.767Z,99476.88
2023-03-21T14:16:26.076Z,99477.05
2023-03-21T14:18:59.807Z,99483.03
2023-03-21T14:19:53.520Z,99479.77
2023-03-21T14:20:57.569Z,99473.73
2023-03-21T14:22:00.373Z,99475.42
2023-03-21T14:23:04.837Z,99476.42
2023-03-21T14:24:12.082Z,99472.89
2023-03-21T14:25:17.535Z,99483.64
2023-03-21T14:26:20.498Z,99477.42
2023-03-21T14:27:23.176Z,99475.77
2023-03-21T14:29:39.024Z,99473.70
2023-03-21T14:30:42.936Z,99477.30
2023-03-21T14:31:46.623Z,99485.36
2023-03-21T14:32:52.950Z,99481.83